Time;durP1;ratioP1;P1;durP2;ratioP2;P2;SDS_P1;SDS_P2;PMS_P1;PMS_P2;Temp;Humidity;BMP_temperature;BMP_pressure;BME280_temperature;BME280_humidity;BME280_pressure;Samples;Min_cycle;Max_cycle;Signal;HPM_P1;HPM_P2
2022/08/10 00:03:35;;;;;;;2.33;1.48;;;;;;;20.26;53.32;97810.56;10532944;28;20055;-59
2022/08/10 00:08:55;;;;;;;1.50;1.38;;;;;;;20.27;53.26;97817.59;10508078;28;20500;-60
2022/08/10 00:14:15;;;;;;;1.58;1.40;;;;;;;20.28;53.36;97818.38;10496198;28;20056;-59
2022/08/10 00:19:34;;;;;;;1.48;1.38;;;;;;;20.27;53.34;97812.19;10533504;28;20093;-59
2022/08/10 00:24:56;;;;;;;1.40;1.30;;;;;;;20.26;53.28;97820.59;10517868;28;20049;-59
2022/08/10 00:30:15;;;;;;;1.73;1.40;;;;;;;20.27;53.32;97806.75;10496665;28;20106;-60
2022/08/10 00:35:34;;;;;;;1.42;1.30;;;;;;;20.26;53.42;97804.34;10504042;28;20082;-59
2022/08/10 00:40:53;;;;;;;2.13;1.10;;;;;;;20.26;53.34;97802.44;10507823;28;20052;-59
2022/08/10 00:46:13;;;;;;;1.30;1.20;;;;;;;20.26;53.34;97798.94;10516341;28;20039;-59
2022/08/10 00:51:33;;;;;;;1.70;1.38;;;;;;;20.25;53.25;97795.44;10517427;28;20401;-59
2022/08/10 00:56:52;;;;;;;1.20;1.15;;;;;;;20.25;53.32;97798.16;10501947;28;20048;-60
2022/08/10 01:02:12;;;;;;;1.40;1.30;;;;;;;20.26;53.20;97797.03;10493303;28;20390;-58
2022/08/10 01:07:56;;;;;;;1.40;1.30;;;;;;;20.25;53.21;97795.44;10507937;28;20059;-59
2022/08/10 01:13:40;;;;;;;1.45;1.33;;;;;;;20.25;53.21;97791.94;10504750;28;20127;-58
2022/08/10 01:19:07;;;;;;;1.20;1.10;;;;;;;20.26;53.33;97799.75;10488245;28;20075;-60
2022/08/10 01:24:46;;;;;;;1.48;1.38;;;;;;;20.25;53.10;97798.16;10507336;28;20044;-59
2022/08/10 01:30:13;;;;;;;1.43;1.27;;;;;;;20.25;53.22;97797.38;10492436;28;20060;-59
2022/08/10 01:35:44;;;;;;;1.88;1.50;;;;;;;20.25;53.15;97797.38;10487918;28;20098;-59
2022/08/10 01:41:07;;;;;;;1.55;1.33;;;;;;;20.25;53.08;97792.75;10528798;28;20391;-59
2022/08/10 01:46:28;;;;;;;1.33;1.23;;;;;;;20.25;52.90;97803.56;10500727;28;20067;-60
2022/08/10 01:51:54;;;;;;;1.40;1.30;;;;;;;20.24;53.08;97793.84;10541913;28;20073;-57
2022/08/10 01:57:15;;;;;;;1.30;1.20;;;;;;;20.24;53.04;97796.53;10487600;28;20056;-59
2022/08/10 02:02:35;;;;;;;1.30;1.20;;;;;;;20.25;52.95;97803.56;10525992;28;20048;-59
2022/08/10 02:07:56;;;;;;;1.60;1.27;;;;;;;20.24;53.04;97790.34;10523607;28;20040;-59
2022/08/10 02:13:16;;;;;;;1.40;1.20;;;;;;;20.24;53.01;97791.13;10500975;28;20048;-59
2022/08/10 02:18:39;;;;;;;1.30;1.20;;;;;;;20.24;52.95;97796.53;10511961;28;20052;-59
2022/08/10 02:23:58;;;;;;;1.58;1.33;;;;;;;20.24;53.02;97799.25;10513991;28;20048;-60
2022/08/10 02:29:19;;;;;;;1.38;1.27;;;;;;;20.23;52.77;97794.94;10484054;28;20048;-59
2022/08/10 02:34:39;;;;;;;1.50;1.40;;;;;;;20.24;52.95;97790.34;10487837;28;20048;-60
2022/08/10 02:39:58;;;;;;;1.50;1.33;;;;;;;20.24;52.94;97790.34;10496506;28;20049;-59
2022/08/10 02:45:26;;;;;;;1.15;1.05;;;;;;;20.22;53.03;97798.75;10497472;28;20048;-60
2022/08/10 02:51:01;;;;;;;1.10;1.10;;;;;;;20.23;52.89;97788.72;10515621;28;20114;-59
2022/08/10 02:56:39;;;;;;;1.35;1.25;;;;;;;20.22;52.90;97798.75;10496369;28;20515;-59
2022/08/10 03:02:01;;;;;;;1.73;1.43;;;;;;;20.23;52.98;97799.53;10498770;28;20153;-60
2022/08/10 03:07:22;;;;;;;1.33;1.23;;;;;;;20.22;52.91;97800.66;10487911;28;20048;-58
2022/08/10 03:12:43;;;;;;;1.20;1.10;;;;;;;20.22;53.04;97793.34;10498602;28;20048;-59
2022/08/10 03:18:04;;;;;;;1.27;1.17;;;;;;;20.22;53.00;97809.56;10502409;28;20056;-58
2022/08/10 03:23:24;;;;;;;1.27;1.17;;;;;;;20.23;52.90;97807.66;10509669;28;20075;-59
2022/08/10 03:28:44;;;;;;;1.30;1.20;;;;;;;20.22;53.02;97803.38;10531500;28;20372;-58
2022/08/10 03:34:03;;;;;;;1.10;1.10;;;;;;;20.21;52.96;97810.69;10531078;28;20492;-59
2022/08/10 03:39:23;;;;;;;1.10;1.10;;;;;;;20.22;52.93;97814.97;10511205;28;20036;-58
2022/08/10 03:44:43;;;;;;;1.25;1.15;;;;;;;20.21;52.91;97813.41;10494968;28;20399;-59
2022/08/10 03:50:03;;;;;;;1.25;1.17;;;;;;;20.21;52.78;97816.09;10526286;28;20053;-59
2022/08/10 03:55:23;;;;;;;1.70;1.27;;;;;;;20.21;52.25;97812.56;10527766;28;20381;-60
2022/08/10 04:00:43;;;;;;;1.50;1.20;;;;;;;20.19;51.69;97810.19;10554311;28;20483;-59
2022/08/10 04:06:03;;;;;;;1.20;1.10;;;;;;;20.18;51.35;97819.41;10543116;28;20039;-59
2022/08/10 04:11:23;;;;;;;1.77;1.38;;;;;;;20.18;51.41;97821.31;10529396;28;20055;-58
2022/08/10 04:16:42;;;;;;;1.77;1.40;;;;;;;20.11;50.46;97819.81;10522420;28;20048;-60
2022/08/10 04:22:23;;;;;;;2.03;1.67;;;;;;;20.04;50.45;97824.03;10488406;28;20057;-59
2022/08/10 04:27:43;;;;;;;3.92;1.60;;;;;;;20.07;50.80;97826.13;10459342;28;20049;-60
2022/08/10 04:33:04;;;;;;;1.85;1.40;;;;;;;20.09;50.83;97818.50;10454608;28;20120;-60
2022/08/10 04:38:25;;;;;;;4.40;1.48;;;;;;;20.09;50.77;97816.63;10460618;28;20041;-59
2022/08/10 04:43:45;;;;;;;5.28;1.80;;;;;;;20.10;50.77;97812.78;10461991;28;20056;-60
2022/08/10 04:49:04;;;;;;;3.63;1.60;;;;;;;19.93;50.26;97813.44;10479657;28;20420;-59
2022/08/10 04:54:24;;;;;;;4.45;1.80;;;;;;;19.71;50.32;97819.53;10461262;28;20056;-59
2022/08/10 04:59:44;;;;;;;3.00;1.75;;;;;;;19.67;51.16;97817.72;10447065;28;20049;-59
2022/08/10 05:05:03;;;;;;;7.07;2.58;;;;;;;19.74;51.31;97820.84;10460677;28;20049;-59
2022/08/10 05:10:23;;;;;;;4.90;2.13;;;;;;;19.82;51.20;97828.25;10460433;28;20392;-59
2022/08/10 05:15:44;;;;;;;2.75;1.80;;;;;;;19.86;51.20;97834.66;10463999;28;20048;-60
2022/08/10 05:21:03;;;;;;;3.65;1.90;;;;;;;19.89;51.34;97838.66;10461438;28;20119;-59
2022/08/10 05:26:23;;;;;;;4.55;2.00;;;;;;;19.91;51.28;97839.16;10460884;28;20053;-58
2022/08/10 05:31:42;;;;;;;5.00;1.88;;;;;;;19.91;51.32;97829.13;10451245;28;20377;-60
2022/08/10 05:37:02;;;;;;;5.47;2.10;;;;;;;19.91;51.52;97841.88;10459993;28;20053;-59
2022/08/10 05:42:23;;;;;;;8.07;1.80;;;;;;;19.91;51.92;97842.66;10485763;28;20059;-59
2022/08/10 05:47:42;;;;;;;6.07;1.95;;;;;;;19.93;52.09;97837.78;10444583;28;20052;-58
2022/08/10 05:53:02;;;;;;;4.80;1.80;;;;;;;19.94;52.21;97833.97;10484985;28;20048;-58
2022/08/10 05:58:21;;;;;;;3.63;1.63;;;;;;;19.94;52.32;97831.25;10485741;28;20037;-60
2022/08/10 06:03:52;;;;;;;2.33;1.60;;;;;;;19.95;52.44;97840.16;10453753;28;20049;-60
2022/08/10 06:09:11;;;;;;;4.47;1.95;;;;;;;19.95;52.48;97835.56;10458281;28;20052;-59
2022/08/10 06:20:10;;;;;;;3.08;1.73;;;;;;;19.98;52.76;97836.06;10482833;28;20049;-60
2022/08/10 06:25:31;;;;;;;2.92;1.77;;;;;;;19.99;52.94;97838.44;10456200;28;20045;-59
2022/08/10 06:30:51;;;;;;;2.90;1.60;;;;;;;19.99;53.13;97840.38;10446152;28;20131;-59
2022/08/10 06:36:11;;;;;;;4.22;1.83;;;;;;;20.01;53.13;97846.28;10413928;28;20049;-60
2022/08/10 06:41:33;;;;;;;3.90;1.90;;;;;;;20.01;53.22;97835.44;10447619;28;20045;-59
2022/08/10 06:46:55;;;;;;;6.38;1.80;;;;;;;20.02;53.03;97842.47;10438313;28;20037;-59
2022/08/10 06:52:15;;;;;;;2.97;1.70;;;;;;;20.02;53.09;97848.69;10400638;28;20501;-59
2022/08/10 06:57:36;;;;;;;2.15;1.70;;;;;;;20.04;53.05;97837.56;10400356;28;20073;-59
2022/08/10 07:02:57;;;;;;;2.53;1.70;;;;;;;20.03;53.10;97846.78;10411968;28;20057;-59
2022/08/10 07:08:20;;;;;;;3.00;1.65;;;;;;;20.03;53.06;97849.47;10413866;28;20041;-60
2022/08/10 07:13:41;;;;;;;2.97;1.67;;;;;;;20.03;52.98;97838.66;10400665;28;20500;-59
2022/08/10 07:19:02;;;;;;;1.50;1.40;;;;;;;20.03;53.16;97841.34;10420291;28;20053;-60
2022/08/10 07:24:21;;;;;;;4.30;1.77;;;;;;;20.05;53.18;97849.97;10428183;28;20094;-60
2022/08/10 07:29:42;;;;;;;1.52;1.42;;;;;;;20.05;53.20;97848.09;10402576;28;20048;-59
2022/08/10 07:35:02;;;;;;;3.92;1.70;;;;;;;20.05;53.15;97858.09;10401611;28;20412;-60
2022/08/10 07:40:22;;;;;;;1.60;1.50;;;;;;;20.05;53.26;97858.09;10412122;28;20485;-60
2022/08/10 07:45:41;;;;;;;1.60;1.50;;;;;;;20.04;53.26;97851.88;10403112;28;20068;-60
2022/08/10 07:51:01;;;;;;;2.13;1.55;;;;;;;20.05;53.40;97860.78;10440743;28;20091;-60
2022/08/10 07:56:26;;;;;;;1.75;1.58;;;;;;;20.05;53.40;97853.50;10416671;28;20417;-59
2022/08/10 08:01:49;;;;;;;2.35;1.75;;;;;;;20.06;53.40;97865.13;10431903;28;20045;-59
2022/08/10 08:07:08;;;;;;;1.60;1.50;;;;;;;20.06;53.42;97854.28;10425056;28;20412;-59
2022/08/10 08:12:30;;;;;;;2.03;1.50;;;;;;;20.06;53.49;97855.09;10422296;28;20441;-60
2022/08/10 08:17:51;;;;;;;2.63;1.83;;;;;;;20.07;53.44;97862.13;10424757;28;20057;-58
2022/08/10 08:23:12;;;;;;;2.35;1.70;;;;;;;20.07;53.57;97861.28;10472287;28;20492;-60
2022/08/10 08:28:33;;;;;;;2.38;1.60;;;;;;;20.08;53.69;97865.59;10457349;28;20064;-58
2022/08/10 08:33:53;;;;;;;2.65;1.40;;;;;;;20.08;53.45;97869.09;10474906;28;20099;-59
2022/08/10 08:39:12;;;;;;;2.40;1.40;;;;;;;20.07;53.60;97855.88;10465392;28;20091;-60
2022/08/10 08:44:59;;;;;;;2.17;1.67;;;;;;;20.07;53.58;97855.88;10461543;28;20629;-58
2022/08/10 08:50:44;;;;;;;1.60;1.50;;;;;;;20.07;53.56;97850.47;10460954;28;20059;-59
2022/08/10 08:56:15;;;;;;;3.05;1.70;;;;;;;20.07;53.68;97855.88;10464616;28;20067;-59
2022/08/10 09:02:06;;;;;;;3.05;1.60;;;;;;;20.09;53.37;97859.09;10479315;28;20048;-59
2022/08/10 09:07:42;;;;;;;2.25;1.35;;;;;;;20.08;53.61;97849.38;10498204;28;20067;-60
2022/08/10 09:13:28;;;;;;;1.95;1.35;;;;;;;20.08;53.72;97841.25;10456406;28;20041;-58
2022/08/10 09:19:07;;;;;;;1.55;1.45;;;;;;;20.08;53.55;97842.06;10486688;28;20496;-60
2022/08/10 09:24:34;;;;;;;2.95;1.63;;;;;;;20.08;53.79;97839.34;10460505;28;20052;-59
2022/08/10 09:30:02;;;;;;;2.53;1.70;;;;;;;20.09;53.72;97845.56;10448929;28;20056;-59
2022/08/10 09:35:26;;;;;;;1.70;1.60;;;;;;;20.09;53.68;97840.97;10463709;28;20052;-60
2022/08/10 09:41:14;;;;;;;2.33;1.63;;;;;;;20.10;53.75;97833.66;10473441;28;20063;-59
2022/08/10 09:46:39;;;;;;;2.20;2.00;;;;;;;20.08;53.80;97836.66;10461815;28;20048;-59
2022/08/10 09:52:08;;;;;;;2.08;1.80;;;;;;;20.09;53.68;97830.16;10471777;28;20045;-60
2022/08/10 09:57:35;;;;;;;2.83;1.80;;;;;;;20.09;53.61;97830.16;10463289;28;20056;-59
2022/08/10 10:03:16;;;;;;;3.55;1.90;;;;;;;20.09;53.67;97827.44;10471874;28;20049;-59
2022/08/10 10:08:53;;;;;;;5.38;2.25;;;;;;;20.10;53.74;97828.22;10458719;28;20057;-60
2022/08/10 10:20:59;;;;;;;6.32;2.63;;;;;;;20.10;53.72;97822.81;10445488;28;20064;-59
2022/08/10 10:26:25;;;;;;;6.47;2.80;;;;;;;20.11;53.79;97813.59;10472855;28;20053;-60
2022/08/10 10:31:47;;;;;;;9.88;2.95;;;;;;;20.10;53.81;97807.38;10459637;28;20060;-60
2022/08/10 10:37:09;;;;;;;7.88;2.70;;;;;;;20.10;53.73;97818.22;10457536;28;20049;-59
2022/08/10 10:42:31;;;;;;;6.70;2.92;;;;;;;20.11;53.70;97802.78;10474508;28;20183;-59
2022/08/10 10:47:50;;;;;;;7.50;2.92;;;;;;;20.12;53.79;97796.28;10458653;28;20056;-59
2022/08/10 10:53:21;;;;;;;7.00;3.40;;;;;;;20.12;53.84;97798.97;10471039;28;20047;-60
2022/08/10 10:58:59;;;;;;;8.20;3.03;;;;;;;20.12;53.78;97801.69;10486043;28;20048;-59
2022/08/10 11:04:24;;;;;;;6.72;2.60;;;;;;;20.14;53.77;97802.19;10495480;28;20053;-60
2022/08/10 11:09:54;;;;;;;6.90;3.17;;;;;;;20.16;53.92;97802.66;10513808;28;20043;-59
2022/08/10 11:15:32;;;;;;;6.93;3.05;;;;;;;20.19;54.05;97795.84;10497750;28;20052;-57
2022/08/10 11:21:19;;;;;;;7.47;3.00;;;;;;;20.08;51.41;97796.06;10502745;28;20049;-56
2022/08/10 11:27:01;;;;;;;7.72;3.13;;;;;;;20.01;52.85;97801.09;10493996;28;20123;-57
2022/08/10 11:32:52;;;;;;;6.25;2.92;;;;;;;20.04;54.06;97794.28;10523584;28;20045;-57
2022/08/10 11:38:26;;;;;;;4.15;2.65;;;;;;;20.03;58.22;97784.56;10490001;28;20407;-56
2022/08/10 11:43:52;;;;;;;4.00;2.38;;;;;;;20.05;58.07;97782.34;10476237;28;20045;-57
2022/08/10 11:49:21;;;;;;;5.70;2.60;;;;;;;20.07;57.49;97786.38;10494841;28;20059;-57
2022/08/10 11:54:46;;;;;;;3.67;2.45;;;;;;;20.05;57.56;97780.47;10510419;28;20052;-57
2022/08/10 12:00:06;;;;;;;5.68;2.50;;;;;;;20.03;57.60;97766.44;10482002;28;20078;-57
2022/08/10 12:05:29;;;;;;;4.03;2.65;;;;;;;20.05;57.75;97768.81;10509425;28;20048;-57
2022/08/10 12:10:49;;;;;;;3.25;2.38;;;;;;;20.09;57.59;97764.41;10485389;28;20055;-57
2022/08/10 12:16:12;;;;;;;3.65;2.38;;;;;;;20.04;56.85;97768.03;10499910;28;20091;-57
2022/08/10 12:21:41;;;;;;;3.67;2.00;;;;;;;20.05;56.72;97766.13;10503978;28;20071;-57
2022/08/10 12:27:11;;;;;;;4.13;2.30;;;;;;;20.05;56.27;97753.41;10531162;28;20075;-57
2022/08/10 12:32:44;;;;;;;29.35;16.60;;;;;;;20.08;56.56;97744.69;10538608;28;20054;-56
2022/08/10 12:38:28;;;;;;;34.67;19.20;;;;;;;20.12;56.71;97750.28;10522875;28;20403;-58
2022/08/10 12:43:49;;;;;;;27.38;15.23;;;;;;;20.12;56.67;97739.47;10491597;28;20044;-58
2022/08/10 12:49:31;;;;;;;24.23;14.02;;;;;;;20.15;56.71;97733.47;10528853;28;20052;-57
2022/08/10 12:54:52;;;;;;;21.35;12.65;;;;;;;20.16;56.57;97729.63;10504313;28;20137;-57
2022/08/10 13:00:12;;;;;;;19.65;10.85;;;;;;;20.18;56.28;97722.00;10501157;28;20048;-58
2022/08/10 13:05:32;;;;;;;16.25;9.30;;;;;;;20.18;56.09;97727.41;10525568;28;20449;-57
2022/08/10 13:10:59;;;;;;;12.45;7.70;;;;;;;20.19;55.83;97728.22;10497954;28;20114;-57
2022/08/10 13:16:20;;;;;;;11.18;7.28;;;;;;;20.20;55.63;97732.53;10536756;28;20048;-58
2022/08/10 13:21:40;;;;;;;10.05;6.28;;;;;;;20.18;55.56;97727.41;10509393;28;20052;-57
2022/08/10 13:27:02;;;;;;;8.48;5.60;;;;;;;20.20;55.26;97714.38;10493119;28;20040;-57
2022/08/10 13:32:27;;;;;;;6.10;4.85;;;;;;;20.21;54.96;97717.88;10499817;28;20048;-57
2022/08/10 13:37:47;;;;;;;6.18;3.70;;;;;;;20.21;54.91;97712.47;10506315;28;20043;-58
2022/08/10 13:43:07;;;;;;;6.50;3.47;;;;;;;20.21;54.77;97713.28;10500333;28;20047;-58
2022/08/10 13:48:29;;;;;;;4.30;3.10;;;;;;;20.23;54.58;97707.56;10527664;28;20037;-57
2022/08/10 13:53:51;;;;;;;3.72;3.05;;;;;;;20.22;54.50;97690.53;10531749;28;20376;-58
2022/08/10 13:59:12;;;;;;;3.95;2.72;;;;;;;20.23;54.10;97685.91;10499663;28;20565;-57
2022/08/10 14:04:32;;;;;;;3.58;2.53;;;;;;;20.23;54.07;97684.03;10501636;28;20047;-58
2022/08/10 14:09:52;;;;;;;3.15;2.22;;;;;;;20.24;53.88;97682.91;10503762;28;20075;-56
2022/08/10 14:15:14;;;;;;;2.40;2.20;;;;;;;20.24;53.82;97682.91;10508802;28;20052;-57
2022/08/10 14:20:35;;;;;;;2.22;2.03;;;;;;;20.25;53.61;97670.19;10493382;28;20060;-58
2022/08/10 14:25:59;;;;;;;3.22;1.92;;;;;;;20.23;53.60;97667.78;10499369;28;20056;-57
2022/08/10 14:31:23;;;;;;;2.10;1.90;;;;;;;20.24;53.43;97655.84;10483837;28;20044;-57
2022/08/10 14:36:50;;;;;;;2.03;1.83;;;;;;;20.24;53.33;97665.88;10487760;28;20052;-57
2022/08/10 14:42:16;;;;;;;2.35;1.98;;;;;;;20.25;53.15;97656.66;10482796;28;20055;-57
2022/08/10 14:47:37;;;;;;;4.00;2.00;;;;;;;20.28;52.53;97661.44;10483619;28;20048;-56
2022/08/10 14:53:08;;;;;;;4.85;2.08;;;;;;;20.27;52.70;97651.75;10503704;28;20090;-57
2022/08/10 14:58:52;;;;;;;2.80;1.92;;;;;;;20.26;52.87;97645.50;10497953;28;20056;-57
2022/08/10 15:04:15;;;;;;;2.42;1.65;;;;;;;20.24;53.03;97647.72;10503351;28;20055;-57
2022/08/10 15:09:45;;;;;;;3.38;2.03;;;;;;;20.24;52.95;97642.31;10521031;28;20037;-57
2022/08/10 15:15:08;;;;;;;20.55;10.23;;;;;;;20.27;53.37;97624.69;10477488;28;20049;-57
2022/08/10 15:20:29;;;;;;;24.55;12.15;;;;;;;20.30;54.42;97627.53;10509325;28;20064;-57
2022/08/10 15:25:49;;;;;;;24.60;10.20;;;;;;;20.32;54.62;97627.25;10497704;28;20056;-56
2022/08/10 15:31:08;;;;;;;16.35;8.02;;;;;;;20.33;54.36;97623.44;10511041;28;20060;-56
2022/08/10 15:42:16;;;;;;;;;;;;;;;20.40;53.70;97625.69;10485906;28;20400;-57
2022/08/10 15:47:40;;;;;;;7.10;3.55;;;;;;;20.41;52.45;97621.91;10511328;28;20319;-57
2022/08/10 15:53:08;;;;;;;7.60;3.10;;;;;;;20.43;51.58;97625.88;10493705;28;20049;-58
2022/08/10 15:58:47;;;;;;;3.58;2.33;;;;;;;20.42;50.95;97623.47;10505304;28;20056;-58
2022/08/10 16:04:12;;;;;;;6.35;2.50;;;;;;;20.43;51.07;97611.56;10515276;28;20040;-57
2022/08/10 16:09:34;;;;;;;10.52;2.85;;;;;;;20.45;50.87;97617.47;10508906;28;20056;-59
2022/08/10 16:14:54;;;;;;;2.67;2.15;;;;;;;20.46;50.33;97611.72;10505562;28;20052;-58
2022/08/10 16:20:20;;;;;;;2.80;1.77;;;;;;;20.47;49.71;97609.84;10523113;28;20064;-59
2022/08/10 16:25:44;;;;;;;1.85;1.42;;;;;;;20.47;48.95;97612.53;10506606;28;20446;-59
2022/08/10 16:31:05;;;;;;;2.88;1.52;;;;;;;20.47;48.51;97601.72;10490484;28;20059;-58
2022/08/10 16:36:41;;;;;;;2.95;1.40;;;;;;;20.45;48.23;97598.53;10515451;28;20047;-57
2022/08/10 16:42:03;;;;;;;2.28;1.60;;;;;;;20.45;48.37;97602.00;10503983;28;20052;-58
2022/08/10 16:47:24;;;;;;;2.80;1.50;;;;;;;20.47;47.95;97604.41;10519074;28;20048;-58
2022/08/10 16:52:48;;;;;;;3.45;1.40;;;;;;;20.48;47.49;97603.28;10517953;28;20071;-60
2022/08/10 16:58:08;;;;;;;2.78;1.30;;;;;;;20.49;46.98;97599.50;10516179;28;20051;-60
2022/08/10 17:03:31;;;;;;;1.40;1.30;;;;;;;20.50;46.71;97603.78;10503344;28;20045;-60
2022/08/10 17:08:53;;;;;;;3.30;1.40;;;;;;;20.50;46.68;97598.38;10535639;28;20457;-59
2022/08/10 17:14:12;;;;;;;1.95;1.45;;;;;;;20.51;45.88;97595.34;10496222;28;20041;-59
2022/08/10 17:19:39;;;;;;;2.15;1.20;;;;;;;20.53;46.18;97597.75;10508788;28;20052;-58
2022/08/10 17:25:04;;;;;;;2.92;1.40;;;;;;;20.50;46.68;97590.25;10503350;28;20056;-58
2022/08/10 17:30:25;;;;;;;2.75;1.60;;;;;;;20.48;47.30;97584.34;10527083;28;20517;-58
2022/08/10 17:35:48;;;;;;;3.70;1.50;;;;;;;20.45;47.83;97595.81;10511235;28;20047;-59
2022/08/10 17:41:12;;;;;;;3.63;1.50;;;;;;;20.44;47.81;97588.78;10502717;28;20590;-59
2022/08/10 17:46:33;;;;;;;4.13;1.45;;;;;;;20.42;47.93;97591.78;10539440;28;20067;-58
2022/08/10 17:51:55;;;;;;;3.90;1.65;;;;;;;20.43;48.03;97600.75;10498594;28;20048;-60
2022/08/10 17:57:19;;;;;;;2.65;1.40;;;;;;;20.42;47.45;97594.50;10526452;28;20037;-59
2022/08/10 18:02:42;;;;;;;4.45;1.23;;;;;;;20.40;48.06;97594.03;10535342;28;20487;-58
2022/08/10 18:08:10;;;;;;;1.65;1.50;;;;;;;20.39;48.41;97602.47;10516366;28;20407;-59
2022/08/10 18:13:33;;;;;;;1.30;1.20;;;;;;;20.38;48.18;97603.56;10518953;28;20067;-58
2022/08/10 18:18:54;;;;;;;3.55;1.52;;;;;;;20.37;48.44;97605.47;10512403;28;20059;-58
2022/08/10 18:24:19;;;;;;;1.48;1.20;;;;;;;20.35;47.59;97613.91;10496674;28;20048;-60
2022/08/10 18:29:41;;;;;;;2.15;1.50;;;;;;;20.35;47.06;97616.59;10496965;28;20102;-60
2022/08/10 18:35:03;;;;;;;1.80;1.17;;;;;;;20.34;46.28;97616.91;10497679;28;20048;-61
2022/08/10 18:40:23;;;;;;;3.08;1.45;;;;;;;20.29;46.53;97615.13;10502017;28;20033;-61
2022/08/10 18:45:42;;;;;;;2.45;1.48;;;;;;;20.29;46.48;97617.84;10503148;28;20053;-60
2022/08/10 18:51:03;;;;;;;2.58;1.27;;;;;;;20.30;46.13;97624.84;10511843;28;20549;-62
2022/08/10 18:56:44;;;;;;;2.45;1.13;;;;;;;20.29;46.89;97623.25;10496451;28;20071;-61
2022/08/10 19:02:16;;;;;;;3.17;1.50;;;;;;;20.29;47.27;97623.25;10532463;28;20052;-61
2022/08/10 19:07:52;;;;;;;1.63;1.13;;;;;;;20.30;46.95;97624.84;10511731;28;20052;-59
2022/08/10 19:13:32;;;;;;;1.92;1.55;;;;;;;20.30;46.97;97632.16;10509515;28;20040;-60
2022/08/10 19:19:19;;;;;;;2.35;1.42;;;;;;;20.30;47.09;97629.47;10521880;28;20036;-59
2022/08/10 19:24:45;;;;;;;1.63;1.23;;;;;;;20.29;47.45;97631.38;10495274;28;20048;-60
2022/08/10 19:30:07;;;;;;;3.47;1.60;;;;;;;20.29;47.80;97634.09;10502643;28;20058;-60
2022/08/10 19:35:54;;;;;;;3.88;1.55;;;;;;;20.29;48.21;97636.78;10511522;28;20497;-59
2022/08/10 19:41:16;;;;;;;2.03;1.55;;;;;;;20.30;48.35;97641.06;10497080;28;20071;-60
2022/08/10 19:46:48;;;;;;;1.70;1.60;;;;;;;20.29;48.98;97636.78;10562639;28;20372;-59
2022/08/10 19:52:29;;;;;;;3.05;1.48;;;;;;;20.29;48.92;97641.41;10522911;28;20464;-60
2022/08/10 19:58:16;;;;;;;4.63;1.60;;;;;;;20.29;48.79;97633.28;10527678;28;20391;-60
2022/08/10 20:03:40;;;;;;;2.83;1.60;;;;;;;20.29;48.70;97638.69;10500644;28;20086;-58
2022/08/10 20:09:12;;;;;;;3.08;1.80;;;;;;;20.29;48.41;97642.19;10509514;28;20060;-60
2022/08/10 20:14:32;;;;;;;2.25;1.70;;;;;;;20.29;48.43;97634.09;10508522;28;20098;-59
2022/08/10 20:20:04;;;;;;;2.33;1.60;;;;;;;20.30;48.60;97638.38;10509737;28;20061;-58
2022/08/10 20:25:27;;;;;;;2.22;1.67;;;;;;;20.30;48.68;97641.06;10497187;28;20102;-59
2022/08/10 20:30:52;;;;;;;2.15;1.70;;;;;;;20.29;48.80;97631.38;10523822;28;20039;-60
2022/08/10 20:36:25;;;;;;;2.78;1.50;;;;;;;20.29;48.68;97644.91;10515492;28;20052;-59
2022/08/10 20:42:01;;;;;;;2.65;1.55;;;;;;;20.30;48.91;97632.16;10519197;28;20043;-60
2022/08/10 20:47:34;;;;;;;2.78;1.65;;;;;;;20.30;48.86;97635.66;10501991;28;20060;-59
2022/08/10 20:52:59;;;;;;;2.72;1.75;;;;;;;20.30;49.01;97638.38;10500888;28;20044;-59
2022/08/10 20:58:30;;;;;;;2.03;1.60;;;;;;;20.30;49.09;97648.41;10520561;28;20139;-60
2022/08/10 21:04:07;;;;;;;3.83;1.60;;;;;;;20.29;49.23;97634.09;10525636;28;20424;-59
2022/08/10 21:09:58;;;;;;;2.35;1.70;;;;;;;20.29;49.27;97639.50;10503269;28;20063;-60
2022/08/10 21:15:36;;;;;;;1.80;1.70;;;;;;;20.29;49.40;97642.19;10502418;28;20041;-59
2022/08/10 21:20:59;;;;;;;3.13;1.75;;;;;;;20.29;49.56;97631.38;10515288;28;20072;-60
2022/08/10 22:59:12;;;;;;;5.00;2.40;;;;;;;20.30;51.00;97632.16;10461135;28;20493;-60
2022/08/10 23:04:46;;;;;;;2.83;1.95;;;;;;;20.30;51.07;97638.38;10470402;28;20045;-59
2022/08/10 23:10:08;;;;;;;3.97;2.28;;;;;;;20.30;51.09;97632.16;10507276;28;20045;-59
2022/08/10 23:22:06;;;;;;;4.93;2.22;;;;;;;20.31;51.29;97639.19;10468560;28;20056;-59
2022/08/10 23:27:27;;;;;;;3.13;2.05;;;;;;;20.30;51.40;97627.53;10472054;28;20053;-59
2022/08/10 23:32:50;;;;;;;4.03;2.20;;;;;;;20.30;51.38;97630.25;10495265;28;20059;-60
2022/08/10 23:38:13;;;;;;;2.97;1.90;;;;;;;20.29;51.48;97631.38;10499568;28;20052;-60
2022/08/10 23:43:36;;;;;;;2.53;1.77;;;;;;;20.29;51.50;97628.66;10500130;28;20377;-59
2022/08/10 23:48:58;;;;;;;2.55;1.90;;;;;;;20.30;51.54;97627.53;10496812;28;20061;-60
2022/08/10 23:54:19;;;;;;;2.45;1.95;;;;;;;20.30;51.63;97627.53;10501380;28;20049;-60
2022/08/10 23:59:40;;;;;;;2.75;2.00;;;;;;;20.29;51.50;97631.38;10499194;28;20051;-59
